Авиационная погода в аэропорту Международный

Регион: 
Погода METAR: 
UKLL 271500Z 31006MPS 9999 BKN040 05/M01 Q1026 R31/190065 NOSIG
Время наблюдения
2021-02-27T15:00:00Z
Температура C
5.0
Точка росы
-1.0
Направление ветра
310
Скорость ветра (узлы)
12
Метео видимость
6.21
Явления погоды
Условия полета
VFR
Аэропорт подробнее: